Time;durP1;ratioP1;P1;durP2;ratioP2;P2;SDS_P1;SDS_P2;PMS_P1;PMS_P2;Temp;Humidity;BMP_temperature;BMP_pressure;BME280_temperature;BME280_humidity;BME280_pressure;Samples;Min_cycle;Max_cycle;Signal;HPM_P1;HPM_P2
2022/03/22 00:01:21;;;;;;;17.57;12.93;;;8.30;99.90;;;;;;5028869;28;20218;-72
2022/03/22 00:04:05;;;;;;;19.53;14.10;;;8.30;99.90;;;;;;5030225;28;20291;-72
2022/03/22 00:06:50;;;;;;;21.93;13.57;;;8.20;99.90;;;;;;5031183;28;20323;-72
2022/03/22 00:09:34;;;;;;;17.70;12.83;;;8.20;99.90;;;;;;5024564;28;20231;-72
2022/03/22 00:12:18;;;;;;;18.67;13.37;;;8.10;99.90;;;;;;5028169;28;20660;-72
2022/03/22 00:15:04;;;;;;;20.93;14.13;;;8.10;99.90;;;;;;5031528;28;20257;-72
2022/03/22 00:17:48;;;;;;;18.63;12.60;;;8.10;99.90;;;;;;5033259;28;20191;-72
2022/03/22 00:20:33;;;;;;;20.87;14.00;;;8.00;99.90;;;;;;5028626;28;20223;-72
2022/03/22 00:23:19;;;;;;;20.33;14.13;;;8.00;99.90;;;;;;5034743;28;20241;-72
2022/03/22 00:26:03;;;;;;;18.80;14.03;;;8.00;99.90;;;;;;5032466;28;20199;-73
2022/03/22 00:28:47;;;;;;;21.03;13.47;;;8.00;99.90;;;;;;5029673;28;20660;-72
2022/03/22 00:31:32;;;;;;;17.93;13.00;;;7.90;99.90;;;;;;5029368;28;20290;-72
2022/03/22 00:34:16;;;;;;;24.70;13.30;;;7.90;99.90;;;;;;5029600;28;20204;-71
2022/03/22 00:37:00;;;;;;;19.97;14.17;;;7.90;99.90;;;;;;5027653;28;20234;-72
2022/03/22 00:39:45;;;;;;;21.70;13.13;;;7.80;99.90;;;;;;5029759;28;20327;-72
2022/03/22 00:42:29;;;;;;;21.17;13.33;;;7.80;99.90;;;;;;5026341;28;20223;-71
2022/03/22 00:45:17;;;;;;;17.43;13.20;;;7.80;99.90;;;;;;5030041;28;20295;-72
2022/03/22 00:48:04;;;;;;;20.97;13.20;;;7.80;99.90;;;;;;5024733;28;20234;-72
2022/03/22 00:50:50;;;;;;;21.33;12.80;;;7.80;99.90;;;;;;5028183;28;20209;-72
2022/03/22 00:53:35;;;;;;;21.20;13.47;;;7.70;99.90;;;;;;5026614;28;20192;-71
2022/03/22 00:56:19;;;;;;;22.23;13.53;;;7.70;99.90;;;;;;5033091;28;20264;-72
2022/03/22 01:02:08;;;;;;;20.30;13.40;;;7.70;99.90;;;;;;5025850;28;20251;-72
2022/03/22 01:04:52;;;;;;;19.23;13.07;;;7.70;99.90;;;;;;5035187;28;20295;-71
2022/03/22 01:07:36;;;;;;;19.93;13.73;;;7.60;99.90;;;;;;5030015;28;20189;-72
2022/03/22 01:10:22;;;;;;;20.63;14.20;;;7.60;99.90;;;;;;5029674;28;20269;-72
2022/03/22 01:13:07;;;;;;;21.97;14.17;;;7.60;99.90;;;;;;5028430;28;20726;-72
2022/03/22 01:15:51;;;;;;;19.87;13.20;;;7.60;99.90;;;;;;5031699;28;20215;-72
2022/03/22 01:18:36;;;;;;;20.87;13.57;;;7.60;99.90;;;;;;5032249;28;20218;-71
2022/03/22 01:21:20;;;;;;;18.73;13.40;;;7.50;99.90;;;;;;5032185;28;20285;-72
2022/03/22 01:24:06;;;;;;;19.00;13.67;;;7.60;99.90;;;;;;5026836;28;20207;-72
2022/03/22 01:26:51;;;;;;;17.33;12.80;;;7.60;99.90;;;;;;5030535;28;20195;-72
2022/03/22 01:29:37;;;;;;;19.63;13.93;;;7.50;99.90;;;;;;5024023;28;20258;-72
2022/03/22 01:32:21;;;;;;;19.43;13.07;;;7.50;99.90;;;;;;5025275;28;20188;-72
2022/03/22 01:35:08;;;;;;;20.03;13.97;;;7.40;99.90;;;;;;5031185;28;20237;-72
2022/03/22 01:37:54;;;;;;;24.47;13.50;;;7.50;99.90;;;;;;5028633;28;20197;-72
2022/03/22 01:40:39;;;;;;;23.13;14.37;;;7.40;99.90;;;;;;5022925;28;20246;-72
2022/03/22 01:43:24;;;;;;;20.63;14.10;;;7.40;99.90;;;;;;5028062;28;20207;-72
2022/03/22 01:46:08;;;;;;;20.37;13.90;;;7.40;99.90;;;;;;5026043;28;20262;-72
2022/03/22 01:48:54;;;;;;;16.20;12.53;;;7.30;99.90;;;;;;5026124;28;20341;-71
2022/03/22 01:51:41;;;;;;;22.87;13.97;;;7.30;99.90;;;;;;5028855;28;20195;-72
2022/03/22 01:54:25;;;;;;;20.53;13.43;;;7.20;99.90;;;;;;5029183;28;20202;-72
2022/03/22 01:57:10;;;;;;;19.83;14.37;;;7.20;99.90;;;;;;5027357;28;20215;-72
2022/03/22 01:59:54;;;;;;;21.53;14.20;;;7.20;99.90;;;;;;5033591;28;20237;-72
2022/03/22 02:05:55;;;;;;;20.73;14.17;;;7.10;99.90;;;;;;5028599;28;20226;-72
2022/03/22 02:08:39;;;;;;;21.03;13.33;;;7.10;99.90;;;;;;5030294;28;20191;-72
2022/03/22 02:11:23;;;;;;;21.03;13.33;;;7.10;99.90;;;;;;5034662;28;20234;-72
2022/03/22 02:14:08;;;;;;;17.77;13.33;;;7.10;99.90;;;;;;5030050;28;20222;-72
2022/03/22 02:16:52;;;;;;;23.63;14.27;;;7.00;99.90;;;;;;5030003;28;20194;-71
2022/03/22 02:19:39;;;;;;;19.63;13.13;;;7.00;99.90;;;;;;5033984;28;20261;-72
2022/03/22 02:22:33;;;;;;;18.90;13.83;;;7.00;99.90;;;;;;5045848;28;20215;-72
2022/03/22 02:25:19;;;;;;;21.00;13.97;;;6.90;99.90;;;;;;5029614;28;20183;-72
2022/03/22 02:28:04;;;;;;;23.37;14.37;;;6.90;99.90;;;;;;5031040;28;20195;-71
2022/03/22 02:30:50;;;;;;;20.83;14.87;;;6.90;99.90;;;;;;5032255;28;20222;-72
2022/03/22 02:33:34;;;;;;;19.67;13.30;;;6.90;99.90;;;;;;5034139;28;20184;-72
2022/03/22 02:36:19;;;;;;;21.93;14.77;;;6.90;99.90;;;;;;5023017;28;20183;-72
2022/03/22 02:39:03;;;;;;;20.30;13.87;;;6.80;99.90;;;;;;5032259;28;20593;-72
2022/03/22 02:41:51;;;;;;;19.90;14.83;;;6.80;99.90;;;;;;5032666;28;20218;-71
2022/03/22 02:44:35;;;;;;;17.07;13.23;;;6.80;99.90;;;;;;5035878;28;20193;-71
2022/03/22 02:47:19;;;;;;;22.60;14.60;;;6.80;99.90;;;;;;5033223;28;20207;-71
2022/03/22 02:50:04;;;;;;;22.03;14.30;;;6.70;99.90;;;;;;5034606;28;20219;-72
2022/03/22 02:52:48;;;;;;;22.77;13.73;;;6.70;99.90;;;;;;5029781;28;20655;-71
2022/03/22 02:55:32;;;;;;;19.07;14.23;;;6.70;99.90;;;;;;5034949;28;20171;-71
2022/03/22 02:58:16;;;;;;;21.90;14.33;;;6.70;99.90;;;;;;5022349;28;20191;-72
2022/03/22 03:01:01;;;;;;;24.00;14.27;;;6.60;99.90;;;;;;5036999;28;20178;-72
2022/03/22 03:03:45;;;;;;;19.63;13.60;;;6.60;99.90;;;;;;5013528;28;20652;-71
2022/03/22 03:06:29;;;;;;;23.37;14.13;;;6.50;99.90;;;;;;5027389;28;20237;-72
2022/03/22 03:09:13;;;;;;;20.17;13.90;;;6.50;99.90;;;;;;5033509;28;20226;-71
2022/03/22 03:11:57;;;;;;;18.73;13.80;;;6.50;99.90;;;;;;5046032;28;20195;-71
2022/03/22 03:14:43;;;;;;;22.23;14.23;;;6.50;99.90;;;;;;5033178;28;20191;-72
2022/03/22 03:17:27;;;;;;;19.93;14.13;;;6.50;99.90;;;;;;5026573;28;20250;-72
2022/03/22 03:20:11;;;;;;;21.80;14.10;;;6.50;99.90;;;;;;5033346;28;20622;-71
2022/03/22 03:22:56;;;;;;;21.73;13.53;;;6.50;99.90;;;;;;5032410;28;20211;-72
2022/03/22 03:25:41;;;;;;;19.43;13.87;;;6.50;99.90;;;;;;5030604;28;20260;-71
2022/03/22 03:28:25;;;;;;;19.63;14.07;;;6.40;99.90;;;;;;5031709;28;20207;-71
2022/03/22 03:31:09;;;;;;;19.63;14.00;;;6.40;99.90;;;;;;5045795;28;20206;-71
2022/03/22 03:33:54;;;;;;;21.00;13.40;;;6.40;99.90;;;;;;5032473;28;20250;-71
2022/03/22 03:36:39;;;;;;;27.80;14.30;;;6.30;99.90;;;;;;5031767;28;20196;-72
2022/03/22 03:39:23;;;;;;;24.10;15.23;;;6.40;99.90;;;;;;5025507;28;20207;-71
2022/03/22 03:42:08;;;;;;;24.00;13.57;;;6.40;99.90;;;;;;5031365;28;20269;-71
2022/03/22 03:47:56;;;;;;;22.90;14.07;;;6.30;99.90;;;;;;5024496;28;20247;-71
2022/03/22 03:50:40;;;;;;;22.05;17.20;;;6.30;99.90;;;;;;5029570;28;20390;-74
2022/03/22 03:53:25;;;;;;;24.27;14.87;;;6.30;99.90;;;;;;5038082;28;20194;-74
2022/03/22 03:56:10;;;;;;;23.23;17.70;;;6.30;99.90;;;;;;5033377;28;20460;-74
2022/03/22 03:58:57;;;;;;;20.87;15.07;;;6.30;99.90;;;;;;5017409;28;20223;-74
2022/03/22 04:01:43;;;;;;;23.95;17.63;;;6.40;99.90;;;;;;5029760;28;20469;-74
2022/03/22 04:04:28;;;;;;;22.95;17.42;;;6.40;99.90;;;;;;5029749;28;20394;-74
2022/03/22 04:07:17;;;;;;;22.83;18.10;;;6.40;99.90;;;;;;5021914;28;20399;-74
2022/03/22 04:10:01;;;;;;;21.87;16.07;;;6.50;99.90;;;;;;5042824;28;20329;-74
2022/03/22 04:12:45;;;;;;;20.07;14.13;;;6.40;99.90;;;;;;5033314;28;20284;-74
2022/03/22 04:15:31;;;;;;;22.83;15.90;;;6.40;99.90;;;;;;5044729;28;20179;-74
2022/03/22 04:18:15;;;;;;;19.47;14.43;;;6.40;99.90;;;;;;5030662;28;20254;-74
2022/03/22 04:20:59;;;;;;;22.77;13.30;;;6.40;99.90;;;;;;5031146;28;20202;-74
2022/03/22 04:23:43;;;;;;;20.83;15.00;;;6.30;99.90;;;;;;5012602;28;20172;-74
2022/03/22 04:26:28;;;;;;;23.60;14.90;;;6.30;99.90;;;;;;5010581;28;20239;-74
2022/03/22 04:35:24;;;;;;;19.13;13.93;;;6.20;99.90;;;;;;5021356;28;20210;-71
2022/03/22 04:38:09;;;;;;;21.07;14.53;;;6.20;99.90;;;;;;5018391;28;20220;-73
2022/03/22 04:40:53;;;;;;;24.27;14.80;;;6.10;99.90;;;;;;5028533;28;20219;-72
2022/03/22 04:43:37;;;;;;;19.30;14.20;;;6.10;99.90;;;;;;5030279;28;20191;-71
2022/03/22 04:46:22;;;;;;;20.47;13.73;;;6.10;99.90;;;;;;5020096;28;20198;-72
2022/03/22 04:49:06;;;;;;;22.53;14.93;;;6.00;99.90;;;;;;5044325;28;20762;-72
2022/03/22 04:57:56;;;;;;;19.70;14.27;;;6.00;99.90;;;;;;5030486;28;20206;-72
2022/03/22 05:00:40;;;;;;;21.93;15.20;;;6.00;99.90;;;;;;5031313;28;20215;-72
2022/03/22 05:03:24;;;;;;;23.00;18.92;;;6.00;99.90;;;;;;5043830;28;20432;-74
2022/03/22 05:06:26;;;;;;;24.70;18.55;;;6.00;99.90;;;;;;5050090;28;20440;-74
2022/03/22 05:09:11;;;;;;;24.67;18.53;;;6.00;99.90;;;;;;5016295;28;20398;-75
2022/03/22 05:11:59;;;;;;;24.88;18.92;;;6.00;99.90;;;;;;5027770;28;20418;-74
2022/03/22 05:14:45;;;;;;;24.05;19.15;;;6.10;99.90;;;;;;5029332;28;20422;-75
2022/03/22 05:17:29;;;;;;;22.67;14.93;;;6.10;99.90;;;;;;5042599;28;20195;-74
2022/03/22 05:20:15;;;;;;;20.57;15.10;;;6.10;99.90;;;;;;5028257;28;20282;-71
2022/03/22 05:22:59;;;;;;;25.40;18.80;;;6.00;99.90;;;;;;5032625;28;20425;-74
2022/03/22 05:25:43;;;;;;;23.42;18.98;;;6.10;99.90;;;;;;5029807;28;20413;-74
2022/03/22 05:28:28;;;;;;;21.10;15.50;;;6.10;99.90;;;;;;5034262;28;20206;-74
2022/03/22 05:31:16;;;;;;;22.83;15.10;;;6.00;99.90;;;;;;5038777;28;20199;-74
2022/03/22 05:34:01;;;;;;;20.13;14.33;;;6.00;99.90;;;;;;5030575;28;20183;-74
2022/03/22 05:36:45;;;;;;;22.57;15.43;;;5.90;99.90;;;;;;5032506;28;20246;-74
2022/03/22 05:39:30;;;;;;;23.80;18.85;;;5.90;99.90;;;;;;5028089;28;20401;-74
2022/03/22 05:42:14;;;;;;;29.23;19.45;;;5.90;99.90;;;;;;5035392;28;20417;-74
2022/03/22 05:44:59;;;;;;;22.80;16.00;;;5.90;99.90;;;;;;5051886;28;20207;-74
2022/03/22 05:47:43;;;;;;;24.42;19.17;;;5.90;99.90;;;;;;5033205;28;20456;-74
2022/03/22 05:50:28;;;;;;;23.27;16.30;;;5.90;99.90;;;;;;5028220;28;20207;-74
2022/03/22 05:53:12;;;;;;;23.27;15.83;;;5.90;99.90;;;;;;5033744;28;20187;-74
2022/03/22 05:55:57;;;;;;;28.73;15.57;;;5.90;99.90;;;;;;5026216;28;20184;-74
2022/03/22 05:58:41;;;;;;;20.97;14.20;;;5.80;99.90;;;;;;5030922;28;20265;-74
2022/03/22 06:01:29;;;;;;;23.40;15.43;;;5.80;99.90;;;;;;5047315;28;20195;-74
2022/03/22 06:04:14;;;;;;;19.27;14.23;;;5.80;99.90;;;;;;5033123;28;20214;-74
2022/03/22 06:07:00;;;;;;;23.30;18.58;;;5.80;99.90;;;;;;5030675;28;20422;-74
2022/03/22 06:09:45;;;;;;;26.73;19.42;;;5.80;99.90;;;;;;5031536;28;20405;-74
2022/03/22 06:12:41;;;;;;;20.80;15.73;;;5.80;99.90;;;;;;5037550;28;20332;-74
2022/03/22 06:15:28;;;;;;;24.87;15.53;;;5.80;99.90;;;;;;5030718;28;20207;-74
2022/03/22 06:18:12;;;;;;;21.40;15.30;;;5.80;99.90;;;;;;5032548;28;20238;-74
2022/03/22 06:20:56;;;;;;;23.37;15.87;;;5.80;99.90;;;;;;5044386;28;20267;-74
2022/03/22 06:23:40;;;;;;;20.80;14.87;;;5.80;99.90;;;;;;5036503;28;20214;-74
2022/03/22 06:26:24;;;;;;;23.03;15.50;;;5.70;99.90;;;;;;5032245;28;20191;-73
2022/03/22 06:29:08;;;;;;;23.67;14.80;;;5.80;99.90;;;;;;5049515;28;20289;-73
2022/03/22 06:31:52;;;;;;;20.73;15.40;;;5.80;99.90;;;;;;5048908;28;20182;-74
2022/03/22 06:34:36;;;;;;;22.80;15.70;;;5.80;99.90;;;;;;5043547;28;20226;-74
2022/03/22 06:37:21;;;;;;;21.37;14.40;;;5.80;99.90;;;;;;5042069;28;20177;-74
2022/03/22 06:40:07;;;;;;;20.83;14.63;;;5.80;99.90;;;;;;5047319;28;20281;-74
2022/03/22 06:42:52;;;;;;;20.80;14.77;;;5.80;99.90;;;;;;5044248;28;20202;-74
2022/03/22 06:45:37;;;;;;;23.67;14.80;;;5.80;99.90;;;;;;5043498;28;20186;-73
2022/03/22 06:48:22;;;;;;;21.55;17.60;;;5.80;99.90;;;;;;5033214;28;20402;-76
2022/03/22 06:51:07;;;;;;;24.60;18.83;;;5.80;99.90;;;;;;5033105;28;20434;-76
2022/03/22 06:53:52;;;;;;;23.17;16.27;;;5.90;99.90;;;;;;5042794;28;20218;-76
2022/03/22 06:56:36;;;;;;;22.57;15.00;;;5.90;99.90;;;;;;5044600;28;20181;-76
2022/03/22 06:59:20;;;;;;;23.23;15.37;;;5.90;99.90;;;;;;5041685;28;20219;-77
2022/03/22 07:02:07;;;;;;;19.50;14.40;;;5.90;99.90;;;;;;5040309;28;20250;-77
2022/03/22 07:04:51;;;;;;;20.93;15.07;;;5.90;99.90;;;;;;5036249;28;20179;-76
2022/03/22 07:07:36;;;;;;;24.07;14.40;;;6.00;99.90;;;;;;5046626;28;20218;-76
2022/03/22 07:10:21;;;;;;;23.23;14.33;;;6.00;99.90;;;;;;5038932;28;20254;-75
2022/03/22 07:13:10;;;;;;;22.50;14.83;;;6.00;99.90;;;;;;5038304;28;20206;-73
2022/03/22 07:15:54;;;;;;;27.33;15.30;;;6.10;99.90;;;;;;5036855;28;20214;-76
2022/03/22 07:18:38;;;;;;;22.00;14.50;;;6.20;99.90;;;;;;5039215;28;20668;-76
2022/03/22 07:21:22;;;;;;;20.93;14.43;;;6.30;99.90;;;;;;5032389;28;20246;-76
2022/03/22 07:24:07;;;;;;;24.47;14.83;;;6.40;99.90;;;;;;5018104;28;20198;-76
2022/03/22 07:26:51;;;;;;;21.10;14.60;;;6.50;99.90;;;;;;5043321;28;20179;-76
2022/03/22 07:29:35;;;;;;;23.47;15.23;;;6.60;99.90;;;;;;5034082;28;20588;-76
2022/03/22 07:32:19;;;;;;;24.53;14.47;;;6.70;99.90;;;;;;5025338;28;20183;-77
2022/03/22 07:35:04;;;;;;;23.10;16.03;;;6.80;99.90;;;;;;5033039;28;20254;-73
2022/03/22 07:37:49;;;;;;;25.93;15.67;;;6.80;99.90;;;;;;5032622;28;20187;-73
2022/03/22 07:40:34;;;;;;;20.57;14.13;;;7.00;99.90;;;;;;5031550;28;20265;-73
2022/03/22 07:43:18;;;;;;;20.40;14.27;;;7.10;99.90;;;;;;5028965;28;20254;-72
2022/03/22 07:46:02;;;;;;;22.57;14.60;;;7.20;99.90;;;;;;5029651;28;20256;-73
2022/03/22 07:48:46;;;;;;;21.67;15.20;;;7.40;99.90;;;;;;5045450;28;20187;-73
2022/03/22 07:54:33;;;;;;;25.67;15.20;;;7.60;99.90;;;;;;5027163;28;20233;-73
2022/03/22 07:57:17;;;;;;;24.83;15.67;;;7.80;99.90;;;;;;5015834;28;20207;-72
2022/03/22 08:00:04;;;;;;;20.93;13.97;;;7.90;99.90;;;;;;5041470;28;20300;-74
2022/03/22 08:02:53;;;;;;;21.63;14.93;;;8.10;99.90;;;;;;5036284;28;20217;-73
2022/03/22 08:05:38;;;;;;;22.87;15.23;;;8.10;99.90;;;;;;5050710;28;20237;-73
2022/03/22 08:08:22;;;;;;;23.83;15.70;;;8.20;99.90;;;;;;5051502;28;20175;-74
2022/03/22 08:11:06;;;;;;;22.37;15.60;;;8.30;99.90;;;;;;5038060;28;20203;-74
2022/03/22 08:13:50;;;;;;;24.70;16.03;;;8.40;99.90;;;;;;5028280;28;20219;-74
2022/03/22 08:16:36;;;;;;;23.20;15.50;;;8.50;99.90;;;;;;5033930;28;20234;-74
2022/03/22 08:19:21;;;;;;;28.07;15.67;;;8.60;99.90;;;;;;5025360;28;20241;-73
2022/03/22 08:22:05;;;;;;;23.60;15.50;;;8.80;99.90;;;;;;5031385;28;20219;-74
2022/03/22 08:24:52;;;;;;;27.00;16.03;;;9.00;99.90;;;;;;5032868;28;20198;-74
2022/03/22 08:27:36;;;;;;;25.73;15.97;;;9.10;99.90;;;;;;5032283;28;20176;-74
2022/03/22 08:30:21;;;;;;;29.07;16.23;;;9.10;99.90;;;;;;5048282;28;20258;-74
2022/03/22 08:33:07;;;;;;;24.17;16.33;;;9.20;99.90;;;;;;5035653;28;20298;-75
2022/03/22 08:35:52;;;;;;;23.17;15.43;;;9.30;99.90;;;;;;5034559;28;20184;-74
2022/03/22 08:38:36;;;;;;;29.03;17.73;;;9.40;99.90;;;;;;5044174;28;20261;-74
2022/03/22 08:41:20;;;;;;;29.53;17.23;;;9.50;99.90;;;;;;5030402;28;20191;-74
2022/03/22 08:44:04;;;;;;;27.17;18.47;;;9.60;99.90;;;;;;5031794;28;20211;-74
2022/03/22 08:46:51;;;;;;;23.17;16.33;;;9.70;99.90;;;;;;5035205;28;20227;-74
2022/03/22 08:49:35;;;;;;;35.47;21.47;;;9.70;99.90;;;;;;5038751;28;20296;-73
2022/03/22 08:52:19;;;;;;;28.50;19.70;;;9.80;99.90;;;;;;5028832;28;20191;-72
2022/03/22 08:55:04;;;;;;;26.40;17.17;;;9.90;99.90;;;;;;5026671;28;20236;-74
2022/03/22 08:57:49;;;;;;;26.63;17.10;;;10.00;99.90;;;;;;5025362;28;20191;-74
2022/03/22 09:00:34;;;;;;;28.23;17.43;;;10.10;99.90;;;;;;5028063;28;20702;-74
2022/03/22 09:03:21;;;;;;;25.77;16.77;;;10.10;99.90;;;;;;5022325;28;20214;-73
2022/03/22 09:06:08;;;;;;;27.93;17.33;;;10.20;99.90;;;;;;5028898;28;20207;-73
2022/03/22 09:08:52;;;;;;;25.87;15.40;;;10.30;99.90;;;;;;5043757;28;20247;-74
2022/03/22 09:11:37;;;;;;;28.63;15.23;;;10.40;99.90;;;;;;5033360;28;20178;-74
2022/03/22 09:14:22;;;;;;;26.27;16.07;;;10.50;99.90;;;;;;5031254;28;20191;-73
2022/03/22 09:17:06;;;;;;;28.57;16.53;;;10.60;99.90;;;;;;5033660;28;20260;-74
2022/03/22 09:19:51;;;;;;;27.60;17.17;;;10.60;99.90;;;;;;5035256;28;20226;-73
2022/03/22 09:22:35;;;;;;;26.90;16.53;;;10.70;99.90;;;;;;5032018;28;20242;-74
2022/03/22 09:25:23;;;;;;;30.47;15.73;;;10.80;99.90;;;;;;5028025;28;20233;-74
2022/03/22 09:28:08;;;;;;;28.67;16.07;;;10.90;99.90;;;;;;5027587;28;20206;-74
2022/03/22 09:30:53;;;;;;;24.57;16.33;;;11.00;99.90;;;;;;5030295;28;20215;-74
2022/03/22 09:33:37;;;;;;;26.87;16.40;;;11.00;99.90;;;;;;5030586;28;20215;-74
2022/03/22 09:36:22;;;;;;;29.47;18.33;;;11.20;99.90;;;;;;5040969;28;20230;-73
2022/03/22 09:39:06;;;;;;;31.17;18.37;;;11.30;99.90;;;;;;5027117;28;20218;-75
2022/03/22 09:41:51;;;;;;;27.50;16.87;;;11.40;99.90;;;;;;5025935;28;20219;-74
2022/03/22 09:44:35;;;;;;;29.87;16.70;;;11.50;99.90;;;;;;5027548;28;20182;-74
2022/03/22 09:47:20;;;;;;;25.87;17.07;;;11.60;99.90;;;;;;5029880;28;20215;-75
2022/03/22 09:50:06;;;;;;;29.97;16.40;;;11.70;99.90;;;;;;5028872;28;20220;-74
2022/03/22 09:52:51;;;;;;;28.73;16.83;;;11.80;99.90;;;;;;5022258;28;20215;-74
2022/03/22 09:55:35;;;;;;;26.07;16.83;;;11.90;99.90;;;;;;5031132;28;20223;-74
2022/03/22 09:58:19;;;;;;;32.77;17.03;;;12.00;99.90;;;;;;5030498;28;20219;-74
2022/03/22 10:01:05;;;;;;;24.23;16.30;;;12.10;99.90;;;;;;5028624;28;20193;-74
2022/03/22 10:04:07;;;;;;;30.40;17.60;;;12.10;99.90;;;;;;5039426;28;20199;-77
2022/03/22 10:06:57;;;;;;;28.10;17.93;;;12.30;99.90;;;;;;5028971;28;20226;-74
2022/03/22 10:09:42;;;;;;;30.17;17.63;;;12.40;99.90;;;;;;5024508;28;20223;-75
2022/03/22 10:12:37;;;;;;;27.67;17.63;;;12.50;99.90;;;;;;5026622;28;20243;-74
2022/03/22 10:15:32;;;;;;;32.30;18.23;;;12.50;99.90;;;;;;5035892;28;20191;-74
2022/03/22 10:18:23;;;;;;;28.77;17.70;;;12.60;99.90;;;;;;5029770;28;20219;-74
2022/03/22 10:21:07;;;;;;;30.20;17.53;;;12.70;99.90;;;;;;5029980;28;20203;-74
2022/03/22 10:23:55;;;;;;;24.80;16.50;;;12.80;99.90;;;;;;5028951;28;20276;-74
2022/03/22 10:26:39;;;;;;;29.07;17.33;;;12.80;99.90;;;;;;5029673;28;20191;-75
2022/03/22 10:29:28;;;;;;;28.90;17.43;;;12.90;99.90;;;;;;5030047;28;20223;-74
2022/03/22 10:32:14;;;;;;;26.90;17.63;;;13.00;99.90;;;;;;5047324;28;20258;-75
2022/03/22 10:35:20;;;;;;;24.80;16.77;;;13.00;99.90;;;;;;5032696;28;20241;-74
2022/03/22 10:38:07;;;;;;;31.10;16.80;;;13.10;99.90;;;;;;5030368;28;20243;-74
2022/03/22 10:40:51;;;;;;;27.73;17.00;;;13.20;99.90;;;;;;5031670;28;20219;-74
2022/03/22 10:43:37;;;;;;;26.47;17.57;;;13.30;99.90;;;;;;5032466;28;20297;-75
2022/03/22 10:46:27;;;;;;;27.37;17.20;;;13.40;99.90;;;;;;5029047;28;20191;-75
2022/03/22 10:49:14;;;;;;;34.80;18.60;;;13.50;99.90;;;;;;5032206;28;20234;-75
2022/03/22 10:51:58;;;;;;;26.23;17.67;;;13.60;99.90;;;;;;5023533;28;20192;-74
2022/03/22 10:54:42;;;;;;;30.57;17.43;;;13.70;99.90;;;;;;5031946;28;20606;-74
2022/03/22 10:57:32;;;;;;;28.27;18.73;;;13.70;99.90;;;;;;5029549;28;20182;-75
2022/03/22 11:00:17;;;;;;;32.67;18.27;;;13.80;99.90;;;;;;5033111;28;20223;-74
2022/03/22 11:03:01;;;;;;;28.27;18.27;;;13.80;99.90;;;;;;5045653;28;20203;-75
2022/03/22 11:05:53;;;;;;;29.23;18.87;;;13.80;99.90;;;;;;5043191;28;20194;-76
2022/03/22 11:08:41;;;;;;;28.90;18.60;;;13.90;99.90;;;;;;5040799;28;20215;-75
2022/03/22 11:11:25;;;;;;;31.00;18.93;;;13.90;99.90;;;;;;5014829;28;20199;-75
2022/03/22 11:14:13;;;;;;;27.30;18.57;;;14.00;99.90;;;;;;5044668;28;20174;-75
2022/03/22 11:16:58;;;;;;;28.87;18.73;;;14.10;99.90;;;;;;5037070;28;20215;-75
2022/03/22 11:19:43;;;;;;;49.53;21.83;;;14.10;99.90;;;;;;5031921;28;20222;-75
2022/03/22 11:22:29;;;;;;;36.53;19.37;;;14.10;99.90;;;;;;5031732;28;20311;-73
2022/03/22 11:25:16;;;;;;;38.10;20.27;;;14.10;99.90;;;;;;5031784;28;20199;-75
2022/03/22 11:28:08;;;;;;;34.17;19.00;;;14.10;99.90;;;;;;5046633;28;20183;-75
2022/03/22 11:30:53;;;;;;;31.00;18.83;;;14.20;99.90;;;;;;5045795;28;20289;-75
2022/03/22 11:36:49;;;;;;;29.97;17.50;;;14.40;99.90;;;;;;5045500;28;20725;-75
2022/03/22 11:42:36;;;;;;;27.43;19.37;;;14.60;99.90;;;;;;5032580;28;20301;-76
2022/03/22 11:45:20;;;;;;;31.13;18.20;;;14.60;99.90;;;;;;5030114;28;20678;-74
2022/03/22 11:48:08;;;;;;;30.13;18.80;;;14.60;99.90;;;;;;5031618;28;20194;-74
2022/03/22 11:51:10;;;;;;;32.07;19.07;;;14.80;99.90;;;;;;5030069;28;20596;-75
2022/03/22 11:53:57;;;;;;;31.63;18.50;;;14.90;99.90;;;;;;5034134;28;20222;-75
2022/03/22 11:56:50;;;;;;;32.60;19.50;;;15.00;99.90;;;;;;5041842;28;20196;-75
2022/03/22 11:59:47;;;;;;;34.73;19.47;;;15.10;99.90;;;;;;5025083;28;20211;-74
2022/03/22 12:02:32;;;;;;;34.63;19.03;;;15.10;99.90;;;;;;5036470;28;20211;-76
2022/03/22 12:05:18;;;;;;;30.17;18.17;;;15.10;99.90;;;;;;5027027;28;20234;-75
2022/03/22 12:08:10;;;;;;;30.63;18.00;;;15.20;99.90;;;;;;5029277;28;20191;-75
2022/03/22 12:10:54;;;;;;;30.60;18.07;;;15.30;99.90;;;;;;5028096;28;20212;-75
2022/03/22 12:13:49;;;;;;;33.07;17.33;;;15.30;99.90;;;;;;5030234;28;20302;-75
2022/03/22 12:16:33;;;;;;;29.53;17.63;;;15.40;99.90;;;;;;5021191;28;20195;-74
2022/03/22 12:19:28;;;;;;;30.27;18.57;;;15.40;99.90;;;;;;5031694;28;20258;-75
2022/03/22 12:22:13;;;;;;;28.57;17.37;;;15.50;99.90;;;;;;5029856;28;20214;-75
2022/03/22 12:24:59;;;;;;;27.13;17.50;;;15.50;99.90;;;;;;5030254;28;20204;-75
2022/03/22 12:28:02;;;;;;;30.13;17.97;;;15.50;99.90;;;;;;5031711;28;20221;-75
2022/03/22 12:30:47;;;;;;;27.50;18.10;;;15.50;99.90;;;;;;5031011;28;20215;-76
2022/03/22 12:33:37;;;;;;;32.00;17.90;;;15.60;99.90;;;;;;5028813;28;20672;-76
2022/03/22 12:36:22;;;;;;;31.67;16.67;;;15.60;99.90;;;;;;5023221;28;20187;-76
2022/03/22 12:39:07;;;;;;;30.50;18.37;;;15.70;99.90;;;;;;5029894;28;20804;-75
2022/03/22 12:41:52;;;;;;;29.77;19.20;;;15.70;99.90;;;;;;5030704;28;20702;-75
2022/03/22 12:44:36;;;;;;;32.37;18.30;;;15.70;99.90;;;;;;5047115;28;20216;-76
2022/03/22 12:47:21;;;;;;;28.73;17.23;;;15.70;99.90;;;;;;5031342;28;20223;-76
2022/03/22 12:50:08;;;;;;;33.10;17.67;;;15.80;99.90;;;;;;5030314;28;20202;-78
2022/03/22 12:52:53;;;;;;;26.70;17.03;;;15.90;99.90;;;;;;5024634;28;20219;-76
2022/03/22 12:55:40;;;;;;;25.27;16.57;;;16.00;99.90;;;;;;5032587;28;20207;-77
2022/03/22 12:58:28;;;;;;;24.30;16.53;;;16.00;99.90;;;;;;5033216;28;20190;-76
2022/03/22 13:01:12;;;;;;;28.57;16.67;;;16.10;99.90;;;;;;5044474;28;20199;-76
2022/03/22 13:03:56;;;;;;;27.17;15.30;;;16.20;99.90;;;;;;5040315;28;20239;-76
2022/03/22 13:06:41;;;;;;;26.30;16.07;;;16.20;99.90;;;;;;5023819;28;20187;-76
2022/03/22 13:12:33;;;;;;;29.33;16.90;;;16.40;99.90;;;;;;5029953;28;20191;-77
2022/03/22 13:15:18;;;;;;;26.30;16.37;;;16.40;99.90;;;;;;5029865;28;20866;-76
2022/03/22 13:18:02;;;;;;;23.17;15.33;;;16.40;99.90;;;;;;5025395;28;20199;-76
2022/03/22 13:20:46;;;;;;;24.33;14.77;;;16.40;99.90;;;;;;5041100;28;20234;-76
2022/03/22 13:23:31;;;;;;;24.93;14.77;;;16.40;99.90;;;;;;5024132;28;20242;-76
2022/03/22 13:26:16;;;;;;;28.83;15.67;;;16.40;99.90;;;;;;5032642;28;20265;-76
2022/03/22 13:29:18;;;;;;;25.07;14.43;;;16.40;99.90;;;;;;5031929;28;20211;-76
2022/03/22 13:32:08;;;;;;;20.47;13.17;;;16.40;99.90;;;;;;5027215;28;20199;-75
2022/03/22 13:35:02;;;;;;;24.93;14.27;;;16.50;99.90;;;;;;5023870;28;20204;-77
2022/03/22 13:37:51;;;;;;;24.03;14.70;;;16.50;99.90;;;;;;5034196;28;20179;-75
2022/03/22 13:40:38;;;;;;;25.53;14.87;;;16.50;99.90;;;;;;5017306;28;20227;-75
2022/03/22 13:43:24;;;;;;;21.67;14.47;;;16.60;99.90;;;;;;5028460;28;20576;-75
2022/03/22 13:46:11;;;;;;;22.47;13.27;;;16.60;99.90;;;;;;5016568;28;20722;-75
2022/03/22 13:48:55;;;;;;;19.83;13.00;;;16.60;99.90;;;;;;5033156;28;20264;-74
2022/03/22 13:51:40;;;;;;;21.07;13.27;;;16.70;99.90;;;;;;5033492;28;20251;-74
2022/03/22 13:54:25;;;;;;;19.90;14.10;;;16.70;99.90;;;;;;5033293;28;20199;-75
2022/03/22 13:57:09;;;;;;;19.37;11.63;;;16.60;99.90;;;;;;5042516;28;20191;-75
2022/03/22 13:59:58;;;;;;;25.20;14.40;;;16.70;99.90;;;;;;5031714;28;20214;-75
2022/03/22 14:02:43;;;;;;;24.27;15.43;;;16.70;99.90;;;;;;5035740;28;20222;-74
2022/03/22 14:05:27;;;;;;;28.43;15.83;;;16.70;99.90;;;;;;5029428;28;20274;-75
2022/03/22 14:08:12;;;;;;;22.83;15.27;;;16.70;99.90;;;;;;5029366;28;20561;-75
2022/03/22 14:10:58;;;;;;;21.50;14.93;;;16.70;99.90;;;;;;5029804;28;20214;-75
2022/03/22 14:13:43;;;;;;;22.93;14.90;;;16.80;99.90;;;;;;5035366;28;20611;-74
2022/03/22 14:16:28;;;;;;;23.10;15.00;;;16.80;99.90;;;;;;5035947;28;20243;-75
2022/03/22 14:19:15;;;;;;;19.10;13.87;;;16.80;99.90;;;;;;5029706;28;20212;-75
2022/03/22 14:21:59;;;;;;;20.40;13.53;;;16.90;99.90;;;;;;5033755;28;20223;-75
2022/03/22 14:24:43;;;;;;;19.10;13.40;;;16.90;99.90;;;;;;5027492;28;20184;-74
2022/03/22 14:27:29;;;;;;;26.73;13.23;;;16.90;99.90;;;;;;5028654;28;20184;-73
2022/03/22 14:30:18;;;;;;;21.53;13.83;;;17.00;99.90;;;;;;5039937;28;20302;-73
2022/03/22 14:33:08;;;;;;;25.53;13.77;;;17.00;99.90;;;;;;5029886;28;20194;-73
2022/03/22 14:35:56;;;;;;;22.97;13.03;;;17.10;99.90;;;;;;5029429;28;20192;-73
2022/03/22 14:38:40;;;;;;;19.77;12.40;;;17.10;99.90;;;;;;5027396;28;20188;-73
2022/03/22 14:41:25;;;;;;;20.00;12.00;;;17.10;99.90;;;;;;5031119;28;20203;-73